Time;durP1;ratioP1;P1;durP2;ratioP2;P2;SDS_P1;SDS_P2;PMS_P1;PMS_P2;Temp;Humidity;BMP_temperature;BMP_pressure;BME280_temperature;BME280_humidity;BME280_pressure;Samples;Min_cycle;Max_cycle;Signal;HPM_P1;HPM_P2
2022/08/31 00:04:26;0.00;0.00;0.62;0.00;0.00;0.62;;;;;23.30;1.00;;;;;;2276805;61;661;-86
2022/08/31 00:06:53;45480.00;0.15;79.37;0.00;0.00;0.62;;;;;23.60;1.00;;;;;;2276733;61;1014;-86
2022/08/31 00:09:20;249504.00;0.83;431.10;40433.00;0.13;70.64;;;;;24.00;1.00;;;;;;2276717;61;1348;-85
2022/08/31 00:11:47;0.00;0.00;0.62;0.00;0.00;0.62;;;;;24.50;1.00;;;;;;2276742;61;1055;-85
2022/08/31 00:14:14;0.00;0.00;0.62;0.00;0.00;0.62;;;;;24.80;1.00;;;;;;2276800;61;1035;-85
2022/08/31 00:16:44;0.00;0.00;0.62;0.00;0.00;0.62;;;;;25.00;1.00;;;;;;2276779;61;1098;-85
2022/08/31 00:19:11;0.00;0.00;0.62;0.00;0.00;0.62;;;;;25.10;1.00;;;;;;2276627;61;1924;-85
2022/08/31 00:21:40;118825.00;0.40;206.06;0.00;0.00;0.62;;;;;25.00;1.00;;;;;;2276779;61;1097;-86
2022/08/31 00:24:07;0.00;0.00;0.62;0.00;0.00;0.62;;;;;25.00;1.00;;;;;;2276796;61;1093;-85
2022/08/31 00:26:35;50112.00;0.17;87.38;0.00;0.00;0.62;;;;;24.80;1.00;;;;;;2276748;61;1103;-84
2022/08/31 00:29:03;0.00;0.00;0.62;0.00;0.00;0.62;;;;;24.20;1.00;;;;;;2276697;61;1376;-84
2022/08/31 00:31:30;0.00;0.00;0.62;0.00;0.00;0.62;;;;;24.00;1.00;;;;;;2276739;61;1102;-86
2022/08/31 00:33:57;0.00;0.00;0.62;0.00;0.00;0.62;;;;;24.20;1.00;;;;;;2276719;61;1025;-84
2022/08/31 00:36:26;0.00;0.00;0.62;0.00;0.00;0.62;;;;;24.50;1.00;;;;;;2276698;61;1007;-85
2022/08/31 00:38:55;133445.00;0.44;231.27;67337.00;0.22;117.16;;;;;24.50;1.00;;;;;;2276611;61;1371;-84
2022/08/31 00:41:27;12516.00;0.04;22.31;0.00;0.00;0.62;;;;;24.70;1.00;;;;;;2276590;61;2024;-85
2022/08/31 00:43:56;0.00;0.00;0.62;0.00;0.00;0.62;;;;;24.60;1.00;;;;;;2276651;61;964;-85
2022/08/31 00:46:26;29339.00;0.10;51.44;0.00;0.00;0.62;;;;;24.50;1.00;;;;;;2276628;61;1094;-85
2022/08/31 00:48:59;23104.00;0.08;40.64;0.00;0.00;0.62;;;;;24.60;1.00;;;;;;2276665;61;1414;-85
2022/08/31 00:51:28;165272.00;0.55;286.12;29000.00;0.10;50.85;;;;;24.60;1.00;;;;;;2276663;61;1058;-86
2022/08/31 00:53:57;705088.00;2.35;1216.06;69193.00;0.23;120.37;;;;;24.60;1.00;;;;;;2276700;61;1085;-85
2022/08/31 00:56:25;821964.00;2.74;1419.46;110593.00;0.37;191.85;;;;;24.70;1.00;;;;;;2276613;61;1645;-86
2022/08/31 00:58:53;831339.00;2.77;1435.83;35782.00;0.12;62.59;;;;;24.70;1.00;;;;;;2276582;61;1395;-85
2022/08/31 01:01:20;1241759.00;4.14;2165.91;83676.00;0.28;145.39;;;;;24.70;1.00;;;;;;2276529;61;1930;-85
2022/08/31 01:03:48;876073.00;2.92;1514.13;22030.00;0.07;38.79;;;;;24.70;1.00;;;;;;2276657;61;1124;-85
2022/08/31 01:06:16;753537.00;2.51;1300.21;2582.00;0.01;5.10;;;;;24.50;1.00;;;;;;2276534;61;1145;-87
2022/08/31 01:08:45;972835.00;3.24;1684.42;180582.00;0.60;312.49;;;;;24.40;1.00;;;;;;2276506;61;1317;-85
2022/08/31 01:11:15;990819.00;3.30;1716.22;29363.00;0.10;51.48;;;;;24.40;1.00;;;;;;2276658;61;1041;-86
2022/08/31 01:13:44;590190.00;1.97;1017.28;0.00;0.00;0.62;;;;;24.50;1.00;;;;;;2276707;61;1069;-86
2022/08/31 01:16:16;963929.00;3.21;1668.69;86651.00;0.29;150.52;;;;;24.50;1.00;;;;;;2276677;61;1253;-87
2022/08/31 01:18:44;1082565.00;3.61;1879.27;101168.00;0.34;175.59;;;;;24.50;1.00;;;;;;2276732;61;1476;-85
2022/08/31 01:21:23;891362.00;2.97;1540.95;124015.00;0.41;215.01;;;;;24.30;1.00;;;;;;2276722;61;1924;-88
2022/08/31 01:23:54;129566752.00;431.89;88131256.00;61345.00;0.20;106.80;;;;;24.00;1.00;;;;;;2276641;61;1125;-87
2022/08/31 01:26:25;449711.00;1.50;775.29;64480.00;0.21;112.22;;;;;23.80;1.00;;;;;;2276719;61;1142;-88
2022/08/31 01:28:58;418392.00;1.39;721.43;71021.00;0.24;123.52;;;;;23.30;1.00;;;;;;2276742;61;1435;-85
2022/08/31 01:31:29;353364.00;1.18;609.64;73478.00;0.24;127.77;;;;;23.40;1.00;;;;;;2276698;61;1030;-87
2022/08/31 01:33:57;283114.00;0.94;488.89;61473.00;0.20;107.02;;;;;23.50;1.00;;;;;;2276685;61;1065;-87
2022/08/31 01:36:25;212945.00;0.71;368.20;56755.00;0.19;98.87;;;;;23.60;1.00;;;;;;2276749;61;1083;-86
2022/08/31 01:38:53;316004.00;1.05;545.43;65090.00;0.22;113.28;;;;;23.80;1.00;;;;;;2276641;61;1485;-87
2022/08/31 01:41:21;206553.00;0.69;357.20;71879.00;0.24;125.01;;;;;24.00;1.00;;;;;;2276577;61;2018;-85
2022/08/31 01:43:48;0.00;0.00;0.62;0.00;0.00;0.62;;;;;24.20;1.00;;;;;;2276773;61;1075;-86
2022/08/31 01:46:15;46876.00;0.16;81.78;0.00;0.00;0.62;;;;;24.00;1.00;;;;;;2276712;61;1126;-86
2022/08/31 01:48:44;16464.00;0.05;29.15;0.00;0.00;0.62;;;;;24.20;1.00;;;;;;2276595;61;1363;-87
2022/08/31 01:51:13;96171.00;0.32;166.96;0.00;0.00;0.62;;;;;24.20;1.00;;;;;;2276703;61;1048;-85
2022/08/31 01:53:41;236011.00;0.79;407.89;18856.00;0.06;33.29;;;;;23.90;1.00;;;;;;2276641;61;1065;-86
2022/08/31 01:56:13;195170.00;0.65;337.61;0.00;0.00;0.62;;;;;23.80;1.00;;;;;;2276453;61;1562;-86
2022/08/31 01:58:41;48257.00;0.16;84.17;0.00;0.00;0.62;;;;;23.90;1.00;;;;;;2276446;61;1383;-87
2022/08/31 02:01:09;0.00;0.00;0.62;0.00;0.00;0.62;;;;;23.90;1.00;;;;;;2276403;61;1988;-87
2022/08/31 02:03:36;40473.00;0.13;70.71;0.00;0.00;0.62;;;;;23.90;1.00;;;;;;2276401;61;1129;-90
2022/08/31 02:06:08;186190.00;0.62;322.15;0.00;0.00;0.62;;;;;24.00;1.00;;;;;;2276373;61;1076;-88
2022/08/31 02:08:36;512570.00;1.71;883.47;101050.00;0.34;175.38;;;;;23.80;1.00;;;;;;2276268;61;1403;-89
2022/08/31 02:11:03;289502.00;0.97;499.87;0.00;0.00;0.62;;;;;23.50;1.00;;;;;;2276333;61;1032;-88
2022/08/31 02:13:31;128596.00;0.43;222.91;0.00;0.00;0.62;;;;;23.70;1.00;;;;;;2276367;61;1135;-89
2022/08/31 02:15:58;206160.00;0.69;356.53;0.00;0.00;0.62;;;;;23.60;1.00;;;;;;2276192;61;1521;-88
2022/08/31 02:18:26;94616.00;0.32;164.28;0.00;0.00;0.62;;;;;23.60;1.00;;;;;;2276224;61;1601;-86
2022/08/31 02:20:54;271387.00;0.90;468.73;13288.00;0.04;23.65;;;;;23.70;1.00;;;;;;2276230;61;1931;-87
2022/08/31 02:23:21;0.00;0.00;0.62;0.00;0.00;0.62;;;;;23.70;1.00;;;;;;2276268;61;1436;-88
2022/08/31 02:25:49;118171.00;0.39;204.93;0.00;0.00;0.62;;;;;23.50;1.00;;;;;;2276339;61;892;-87
2022/08/31 02:28:17;81539.00;0.27;141.70;0.00;0.00;0.62;;;;;23.40;1.00;;;;;;2276096;61;1622;-86
2022/08/31 02:30:46;205530.00;0.69;355.44;0.00;0.00;0.62;;;;;23.50;1.00;;;;;;2276204;61;1433;-86
2022/08/31 02:36:02;472171.00;1.57;813.93;137728.00;0.46;238.65;;;;;22.80;1.00;;;;;;2275795;61;1059;-87
2022/08/31 02:38:34;401350.00;1.34;692.13;168761.00;0.56;292.13;;;;;22.30;1.00;;;;;;2276337;61;1324;-85
2022/08/31 02:41:05;631048.00;2.10;1087.86;89764.00;0.30;155.90;;;;;22.10;1.00;;;;;;2276170;61;1924;-87
2022/08/31 02:43:36;393520.00;1.31;678.67;68877.00;0.23;119.82;;;;;21.60;1.00;;;;;;2276231;61;1553;-87
2022/08/31 02:46:05;730289.00;2.43;1259.80;155452.00;0.52;269.20;;;;;21.40;1.00;;;;;;2276215;61;1327;-87
2022/08/31 02:48:33;933241.00;3.11;1614.58;82669.00;0.28;143.65;;;;;21.70;1.00;;;;;;2276272;61;1383;-88
2022/08/31 02:51:07;1072128.00;3.57;1860.65;101780.00;0.34;176.64;;;;;21.90;1.00;;;;;;2276187;61;1443;-88
2022/08/31 02:53:35;881081.00;2.94;1522.92;231119.00;0.77;399.47;;;;;21.50;1.00;;;;;;2276261;61;1052;-87
2022/08/31 02:56:02;630881.00;2.10;1087.57;29816.00;0.10;52.26;;;;;21.80;1.00;;;;;;2276256;61;1420;-88
2022/08/31 02:58:30;656293.00;2.19;1131.53;8434.00;0.03;15.24;;;;;22.10;1.00;;;;;;2276246;61;1266;-87
2022/08/31 03:00:59;877070.00;2.92;1515.88;13804.00;0.05;24.54;;;;;22.20;1.00;;;;;;2276273;61;1919;-87
2022/08/31 03:03:27;1045380.00;3.48;1813.01;86690.00;0.29;150.59;;;;;22.60;1.00;;;;;;2274464;61;1046;-86
2022/08/31 03:05:55;439892.00;1.47;758.40;46203.00;0.15;80.62;;;;;22.70;1.00;;;;;;2272208;61;1018;-86
2022/08/31 03:08:21;1021277.00;3.40;1770.19;81112.00;0.27;140.96;;;;;22.90;1.00;;;;;;2272037;61;1594;-86
2022/08/31 03:10:50;426251.00;1.42;734.94;55090.00;0.18;95.99;;;;;22.70;1.00;;;;;;2272239;61;1099;-86
2022/08/31 03:13:17;761045.00;2.54;1313.27;23485.00;0.08;41.30;;;;;22.80;1.00;;;;;;2272173;61;1024;-87
2022/08/31 03:15:47;935312.00;3.12;1618.23;151433.00;0.50;262.28;;;;;23.00;1.00;;;;;;2272678;61;1055;-87
2022/08/31 03:18:14;566268.00;1.89;976.01;89373.00;0.30;155.23;;;;;23.10;1.00;;;;;;2276209;61;1632;-87
2022/08/31 03:20:43;568405.00;1.89;979.70;0.00;0.00;0.62;;;;;23.00;1.00;;;;;;2276197;61;1990;-88
2022/08/31 03:23:11;849511.00;2.83;1467.61;58826.00;0.20;102.45;;;;;22.80;1.00;;;;;;2272941;61;1090;-87
2022/08/31 03:25:38;744872.00;2.48;1285.14;27865.00;0.09;48.89;;;;;22.80;1.00;;;;;;2272149;61;1512;-87
2022/08/31 03:28:04;535643.00;1.79;923.21;133567.00;0.45;231.48;;;;;22.90;1.00;;;;;;2276445;61;1454;-87
2022/08/31 03:30:31;199529.00;0.67;345.11;71779.00;0.24;124.83;;;;;23.00;1.00;;;;;;2276942;61;1133;-88
2022/08/31 03:32:58;440490.00;1.47;759.43;134060.00;0.45;232.33;;;;;22.80;1.00;;;;;;2274244;61;1095;-88
2022/08/31 03:35:25;445480.00;1.48;768.01;113098.00;0.38;196.18;;;;;22.60;1.00;;;;;;2272894;61;1099;-88
2022/08/31 03:37:54;249755.00;0.83;431.53;67595.00;0.23;117.60;;;;;22.60;1.00;;;;;;2272481;61;1634;-86
2022/08/31 03:40:21;367561.00;1.23;634.04;109282.00;0.36;189.59;;;;;22.50;1.00;;;;;;2272765;61;2005;-87
2022/08/31 03:42:48;383668.00;1.28;661.73;59315.00;0.20;103.29;;;;;22.60;1.00;;;;;;2272796;61;1083;-87
2022/08/31 03:45:15;313570.00;1.05;541.25;83113.00;0.28;144.41;;;;;22.40;1.00;;;;;;2275820;61;1031;-87
2022/08/31 03:47:42;199940.00;0.67;345.82;57714.00;0.19;100.52;;;;;22.20;1.00;;;;;;2276836;61;997;-87
2022/08/31 03:50:10;497039.00;1.66;856.73;104317.00;0.35;181.02;;;;;22.10;1.00;;;;;;2276740;61;1565;-86
2022/08/31 03:52:37;192219.00;0.64;332.53;68814.00;0.23;119.71;;;;;22.20;1.00;;;;;;2275318;61;994;-86
2022/08/31 03:55:06;327251.00;1.09;564.76;72628.00;0.24;126.30;;;;;22.40;1.00;;;;;;2272722;61;1398;-86
2022/08/31 03:57:37;349437.00;1.16;602.89;69401.00;0.23;120.73;;;;;22.50;1.00;;;;;;2272688;61;1593;-87
2022/08/31 04:00:06;388326.00;1.29;669.74;70782.00;0.24;123.11;;;;;22.80;1.00;;;;;;2272623;61;1936;-87
2022/08/31 04:02:37;787201.00;2.62;1358.81;191021.00;0.64;330.47;;;;;22.90;1.00;;;;;;2273628;61;1431;-87
2022/08/31 04:05:05;521641.00;1.74;899.09;53805.00;0.18;93.77;;;;;22.70;1.00;;;;;;2276736;61;1559;-86
2022/08/31 04:07:36;419497.00;1.40;723.33;65231.00;0.22;113.52;;;;;22.70;1.00;;;;;;2276646;61;1535;-86
2022/08/31 04:10:03;121381560.00;404.61;72447960.00;138346.00;0.46;239.72;;;;;22.90;1.00;;;;;;2276742;61;1352;-87
2022/08/31 04:12:31;685566.00;2.29;1182.22;74720.00;0.25;129.92;;;;;23.00;1.00;;;;;;2276699;61;1042;-88
2022/08/31 04:14:58;688469.00;2.29;1187.25;66664.00;0.22;116.00;;;;;23.00;1.00;;;;;;2276745;61;1016;-87
2022/08/31 04:17:26;826557.00;2.76;1427.48;109264.00;0.36;189.56;;;;;22.90;1.00;;;;;;2276727;61;970;-86
2022/08/31 04:19:53;716014.00;2.39;1235.02;96573.00;0.32;167.66;;;;;22.50;1.00;;;;;;2276670;61;1362;-86
2022/08/31 04:22:20;603266.00;2.01;1039.86;73576.00;0.25;127.94;;;;;22.80;1.00;;;;;;2276741;61;1932;-88
2022/08/31 04:24:47;845912.00;2.82;1461.32;114679.00;0.38;198.90;;;;;22.90;1.00;;;;;;2273746;61;1662;-89
2022/08/31 04:27:14;559865.00;1.87;964.97;60668.00;0.20;105.63;;;;;23.00;1.00;;;;;;2272459;61;1643;-88
2022/08/31 04:29:42;612156.00;2.04;1055.21;65340.00;0.22;113.71;;;;;22.90;1.00;;;;;;2272548;61;1758;-87
2022/08/31 04:32:09;503593.00;1.68;868.01;112968.00;0.38;195.95;;;;;23.00;1.00;;;;;;2272606;61;964;-86
2022/08/31 04:34:36;527039.00;1.76;908.39;63629.00;0.21;110.75;;;;;23.10;1.00;;;;;;2272597;61;2136;-87
2022/08/31 04:37:03;427047.00;1.42;736.31;67582.00;0.23;117.58;;;;;23.10;1.00;;;;;;2272615;61;979;-87
2022/08/31 04:39:32;517735.00;1.73;892.36;78211.00;0.26;135.95;;;;;23.20;1.00;;;;;;2272422;61;1495;-87
2022/08/31 04:41:59;520746.00;1.74;897.55;68782.00;0.23;119.66;;;;;23.10;1.00;;;;;;2272572;61;1990;-87
2022/08/31 04:44:27;667293.00;2.22;1150.57;65238.00;0.22;113.53;;;;;22.90;1.00;;;;;;2272624;61;952;-87
2022/08/31 04:46:56;471296.00;1.57;812.42;81323.00;0.27;141.32;;;;;23.00;1.00;;;;;;2272528;61;1476;-86
2022/08/31 04:49:23;540885.00;1.80;932.25;66291.00;0.22;115.35;;;;;22.80;1.00;;;;;;2273643;61;1356;-87
2022/08/31 04:51:50;564207.00;1.88;972.46;76367.00;0.25;132.76;;;;;23.00;1.00;;;;;;2276593;61;1017;-87
2022/08/31 04:54:18;648226.00;2.16;1117.57;66172.00;0.22;115.15;;;;;22.90;1.00;;;;;;2276568;61;994;-86
2022/08/31 04:56:46;444954.00;1.48;767.10;53904.00;0.18;93.94;;;;;22.70;1.00;;;;;;2276622;61;1043;-87
2022/08/31 04:59:18;598409.00;1.99;1031.47;112961.00;0.38;195.94;;;;;22.80;1.00;;;;;;2275996;61;1379;-86
2022/08/31 05:01:46;544482.00;1.81;938.45;60928.00;0.20;106.08;;;;;22.70;1.00;;;;;;2272397;61;1923;-86
2022/08/31 05:04:15;307706.00;1.03;531.17;0.00;0.00;0.62;;;;;22.80;1.00;;;;;;2272567;61;1311;-87
2022/08/31 05:06:45;120234752.00;400.78;70411992.00;0.00;0.00;0.62;;;;;23.00;1.00;;;;;;2272520;61;1058;-87
2022/08/31 05:09:15;446505.00;1.49;769.77;0.00;0.00;0.62;;;;;22.90;1.00;;;;;;2272534;61;1617;-86
2022/08/31 05:11:43;311253.00;1.04;537.26;0.00;0.00;0.62;;;;;23.00;1.00;;;;;;2276516;61;918;-87
2022/08/31 05:14:10;405176.00;1.35;698.70;0.00;0.00;0.62;;;;;22.80;1.00;;;;;;2276510;61;1070;-87
2022/08/31 05:16:42;252769.00;0.84;436.71;0.00;0.00;0.62;;;;;22.90;1.00;;;;;;2276468;61;1343;-86
2022/08/31 05:19:14;503894.00;1.68;868.53;77227.00;0.26;134.25;;;;;23.00;1.00;;;;;;2276431;61;1501;-87
2022/08/31 05:21:45;458939.00;1.53;791.16;0.00;0.00;0.62;;;;;22.90;1.00;;;;;;2276396;61;1913;-87
2022/08/31 05:24:14;580606.00;1.94;1000.74;93687.00;0.31;162.67;;;;;22.90;1.00;;;;;;2276347;61;1423;-87
2022/08/31 05:26:44;528678.00;1.76;911.21;0.00;0.00;0.62;;;;;22.70;1.00;;;;;;2276511;61;1514;-87
2022/08/31 05:29:14;178042.00;0.59;308.12;0.00;0.00;0.62;;;;;22.40;1.00;;;;;;2276267;61;1485;-88
2022/08/31 05:31:42;517473.00;1.72;891.91;77258.00;0.26;134.30;;;;;22.00;1.00;;;;;;2272500;61;1435;-87
2022/08/31 05:34:13;111498.00;0.37;193.41;22324.00;0.07;39.29;;;;;21.70;1.80;;;;;;2272443;61;1133;-86
2022/08/31 05:36:45;152019.00;0.51;263.29;0.00;0.00;0.62;;;;;21.60;2.30;;;;;;2272432;61;1127;-86
2022/08/31 05:39:13;201317.00;0.67;348.19;0.00;0.00;0.62;;;;;21.70;2.40;;;;;;2272333;61;1574;-88
2022/08/31 05:41:43;178329.00;0.59;308.61;0.00;0.00;0.62;;;;;21.50;2.70;;;;;;2275931;61;1927;-88
2022/08/31 05:44:11;144804.00;0.48;250.85;0.00;0.00;0.62;;;;;21.50;2.20;;;;;;2276504;61;950;-87
2022/08/31 05:46:38;499157.00;1.66;860.37;51604.00;0.17;89.96;;;;;21.40;2.40;;;;;;2276307;61;1473;-86
2022/08/31 05:49:07;154538.00;0.52;267.63;0.00;0.00;0.62;;;;;21.60;1.50;;;;;;2276445;61;1473;-87
2022/08/31 05:51:35;378095.00;1.26;652.15;56834.00;0.19;99.00;;;;;21.50;1.60;;;;;;2272982;61;1044;-86
2022/08/31 05:54:06;178402.00;0.59;308.74;0.00;0.00;0.62;;;;;21.70;1.00;;;;;;2272320;61;1620;-85
2022/08/31 05:56:36;114002.00;0.38;197.74;0.00;0.00;0.62;;;;;21.80;1.20;;;;;;2272361;61;1002;-86
2022/08/31 05:59:03;46580.00;0.16;81.27;0.00;0.00;0.62;;;;;21.50;1.40;;;;;;2272306;61;1293;-87
2022/08/31 06:01:33;10438.00;0.03;18.71;0.00;0.00;0.62;;;;;21.70;1.00;;;;;;2272280;61;1997;-85
2022/08/31 06:04:01;235008.00;0.78;406.16;0.00;0.00;0.62;;;;;21.70;1.00;;;;;;2272273;61;2105;-86
2022/08/31 06:06:29;228668.00;0.76;395.26;0.00;0.00;0.62;;;;;21.90;1.00;;;;;;2272398;61;1115;-87
2022/08/31 06:08:58;83600.00;0.28;145.26;0.00;0.00;0.62;;;;;21.90;1.00;;;;;;2274964;61;1346;-86
2022/08/31 06:11:29;222349.00;0.74;384.39;35315.00;0.12;61.78;;;;;21.80;1.00;;;;;;2276377;61;947;-88
2022/08/31 06:13:58;165914.00;0.55;287.23;0.00;0.00;0.62;;;;;21.80;1.00;;;;;;2276332;61;941;-86
2022/08/31 06:16:31;191571.00;0.64;331.41;0.00;0.00;0.62;;;;;21.80;1.00;;;;;;2276297;61;1159;-84
2022/08/31 06:19:02;122453616.00;408.18;74386392.00;0.00;0.00;0.62;;;;;21.90;1.00;;;;;;2276258;61;1555;-86
2022/08/31 06:21:33;302823.00;1.01;522.77;0.00;0.00;0.62;;;;;21.70;1.00;;;;;;2276257;61;2008;-86
2022/08/31 06:24:02;165334.00;0.55;286.23;0.00;0.00;0.62;;;;;21.70;1.00;;;;;;2276325;61;997;-86
2022/08/31 06:26:34;124193.00;0.41;215.31;0.00;0.00;0.62;;;;;21.70;1.00;;;;;;2276298;61;2172;-86
2022/08/31 06:29:04;22034.00;0.07;38.79;0.00;0.00;0.62;;;;;22.00;1.00;;;;;;2273244;61;1433;-86
2022/08/31 06:31:34;166905.00;0.56;288.94;34686.00;0.12;60.69;;;;;22.10;1.00;;;;;;2272260;61;1224;-86
2022/08/31 06:34:05;133175.00;0.44;230.80;0.00;0.00;0.62;;;;;22.00;1.00;;;;;;2272162;61;1145;-86
2022/08/31 06:36:33;95960.00;0.32;166.60;0.00;0.00;0.62;;;;;22.00;1.00;;;;;;2272238;61;2067;-87
2022/08/31 06:39:02;104420.00;0.35;181.20;0.00;0.00;0.62;;;;;22.10;1.00;;;;;;2274729;61;1448;-87
2022/08/31 06:41:35;443638.00;1.48;764.84;59853.00;0.20;104.22;;;;;22.10;1.00;;;;;;2276178;61;1911;-89
2022/08/31 06:44:02;240109.00;0.80;414.94;0.00;0.00;0.62;;;;;21.90;1.00;;;;;;2276314;61;1029;-87
2022/08/31 06:46:31;124847.00;0.42;216.44;0.00;0.00;0.62;;;;;21.90;1.00;;;;;;2276312;61;1001;-86
2022/08/31 06:48:59;230206.00;0.77;397.90;2139.00;0.01;4.33;;;;;22.20;1.00;;;;;;2275539;61;1613;-84
2022/08/31 06:51:27;282707.00;0.94;488.19;0.00;0.00;0.62;;;;;22.30;1.00;;;;;;2275353;61;1725;-87
2022/08/31 06:53:54;239672.00;0.80;414.19;0.00;0.00;0.62;;;;;22.20;1.00;;;;;;2275716;61;1110;-87
2022/08/31 06:56:25;152054.00;0.51;263.35;0.00;0.00;0.62;;;;;22.20;1.00;;;;;;2276153;61;1431;-87
2022/08/31 06:58:55;156368.00;0.52;270.78;0.00;0.00;0.62;;;;;22.10;1.00;;;;;;2276050;61;1557;-84
2022/08/31 07:01:26;139550.00;0.47;241.80;0.00;0.00;0.62;;;;;22.50;1.00;;;;;;2276239;61;2002;-85
2022/08/31 07:03:55;60219.00;0.20;104.86;0.00;0.00;0.62;;;;;22.60;1.00;;;;;;2276895;61;1215;-86
2022/08/31 07:06:24;337582.00;1.13;582.52;23020.00;0.08;40.50;;;;;22.90;1.00;;;;;;2276972;61;1021;-86
2022/08/31 07:08:55;149223.00;0.50;258.47;0.00;0.00;0.62;;;;;23.00;1.00;;;;;;2276796;61;1728;-86
2022/08/31 07:11:25;55645.00;0.19;96.95;0.00;0.00;0.62;;;;;23.00;1.00;;;;;;2276917;61;1017;-86
2022/08/31 07:13:57;177092.00;0.59;306.48;20736.00;0.07;36.54;;;;;23.10;1.00;;;;;;2276885;61;1617;-86
2022/08/31 07:16:27;104897.00;0.35;182.02;0.00;0.00;0.62;;;;;23.10;1.00;;;;;;2276864;61;1260;-86
2022/08/31 07:18:57;262918.00;0.88;454.17;0.00;0.00;0.62;;;;;23.10;1.00;;;;;;2276572;61;1625;-86
2022/08/31 07:21:27;71595.00;0.24;124.52;0.00;0.00;0.62;;;;;23.30;1.00;;;;;;2276848;61;1924;-85
2022/08/31 07:23:59;180124.00;0.60;311.70;0.00;0.00;0.62;;;;;23.30;1.00;;;;;;2276893;61;1143;-85
2022/08/31 07:26:28;231299.00;0.77;399.78;612.00;0.00;1.68;;;;;23.00;1.00;;;;;;2276749;61;1607;-85
2022/08/31 07:28:58;191979.00;0.64;332.12;0.00;0.00;0.62;;;;;22.80;1.00;;;;;;2276635;61;1311;-85
2022/08/31 07:31:36;148952.00;0.50;258.00;0.00;0.00;0.62;;;;;22.60;1.00;;;;;;2276690;61;1451;-86
2022/08/31 07:34:05;0.00;0.00;0.62;0.00;0.00;0.62;;;;;22.30;1.00;;;;;;2276635;61;1101;-86
2022/08/31 07:36:32;133096.00;0.44;230.67;0.00;0.00;0.62;;;;;22.10;1.00;;;;;;2276887;61;1199;-87
2022/08/31 07:44:30;85515.00;0.29;148.56;19444.00;0.06;34.31;;;;;22.50;1.00;;;;;;2276860;61;622;-86
2022/08/31 07:46:57;4862.00;0.02;9.05;0.00;0.00;0.62;;;;;22.70;1.00;;;;;;2276782;61;1046;-87
2022/08/31 07:49:25;101345.00;0.34;175.89;0.00;0.00;0.62;;;;;22.80;1.00;;;;;;2276576;61;1420;-86
2022/08/31 07:51:52;199416.00;0.66;344.92;0.00;0.00;0.62;;;;;22.70;1.00;;;;;;2276732;61;1490;-86
2022/08/31 07:54:21;316982.00;1.06;547.11;37168.00;0.12;64.99;;;;;22.80;1.00;;;;;;2276540;61;1526;-85
2022/08/31 07:56:49;28320.00;0.09;49.68;0.00;0.00;0.62;;;;;23.00;1.00;;;;;;2276796;61;1010;-85
2022/08/31 07:59:17;0.00;0.00;0.62;0.00;0.00;0.62;;;;;23.00;1.00;;;;;;2276590;61;1408;-86
2022/08/31 08:01:46;80704.00;0.27;140.25;0.00;0.00;0.62;;;;;23.20;1.00;;;;;;2276690;61;1915;-85
2022/08/31 08:04:24;36980.00;0.12;64.66;0.00;0.00;0.62;;;;;23.40;1.00;;;;;;2276430;61;1236;-84
2022/08/31 08:06:51;198371.00;0.66;343.12;0.00;0.00;0.62;;;;;23.40;1.00;;;;;;2276659;61;1403;-86
2022/08/31 08:09:18;29877.00;0.10;52.37;0.00;0.00;0.62;;;;;23.40;1.00;;;;;;2276552;61;1304;-86
2022/08/31 08:11:48;70098.00;0.23;121.93;0.00;0.00;0.62;;;;;23.60;1.00;;;;;;2276673;61;1095;-85
2022/08/31 08:14:17;25320.00;0.08;44.48;0.00;0.00;0.62;;;;;23.50;1.00;;;;;;2276424;61;1181;-85
2022/08/31 08:16:46;189248.00;0.63;327.41;0.00;0.00;0.62;;;;;23.40;1.00;;;;;;2276718;61;1443;-86
2022/08/31 08:19:13;229925.00;0.77;397.42;0.00;0.00;0.62;;;;;23.20;1.00;;;;;;2276371;61;1638;-86
2022/08/31 08:21:40;434085.00;1.45;748.41;85991.00;0.29;149.38;;;;;23.20;1.00;;;;;;2276459;61;1923;-85
2022/08/31 08:24:07;203386.00;0.68;351.75;0.00;0.00;0.62;;;;;23.00;1.00;;;;;;2276673;61;1042;-86
2022/08/31 08:26:34;148006.00;0.49;256.37;0.00;0.00;0.62;;;;;22.70;1.00;;;;;;2276634;61;1747;-86
2022/08/31 08:29:04;126388.00;0.42;219.10;0.00;0.00;0.62;;;;;22.70;1.00;;;;;;2276551;61;1389;-86
2022/08/31 08:31:32;41262.00;0.14;72.07;0.00;0.00;0.62;;;;;22.90;1.00;;;;;;2276644;61;1618;-86
2022/08/31 08:34:00;407095.00;1.36;702.00;178989.00;0.60;309.75;;;;;22.80;1.00;;;;;;2276397;61;2246;-85
2022/08/31 08:36:32;64055.00;0.21;111.49;0.00;0.00;0.62;;;;;22.90;1.00;;;;;;2276677;61;1067;-86
2022/08/31 08:38:59;305173.00;1.02;526.81;90982.00;0.30;158.00;;;;;23.10;1.00;;;;;;2276581;61;1556;-86
2022/08/31 08:41:28;0.00;0.00;0.62;0.00;0.00;0.62;;;;;23.20;1.00;;;;;;2276690;61;1128;-85
2022/08/31 08:43:59;43379.00;0.14;75.73;0.00;0.00;0.62;;;;;23.30;1.00;;;;;;2276566;61;1129;-84
2022/08/31 08:46:32;13800.00;0.05;24.53;0.00;0.00;0.62;;;;;23.40;1.00;;;;;;2276645;61;1018;-85
2022/08/31 08:49:15;68586.00;0.23;119.32;0.00;0.00;0.62;;;;;23.30;1.00;;;;;;2276361;61;1737;-84
2022/08/31 08:51:43;0.00;0.00;0.62;0.00;0.00;0.62;;;;;23.00;1.00;;;;;;2276602;61;1144;-87
2022/08/31 08:54:13;31377.00;0.10;54.97;0.00;0.00;0.62;;;;;22.80;1.00;;;;;;2276629;61;1016;-86
2022/08/31 08:56:45;0.00;0.00;0.62;0.00;0.00;0.62;;;;;22.80;1.00;;;;;;2276601;61;1079;-86
2022/08/31 08:59:13;165100.00;0.55;285.83;24209.00;0.08;42.56;;;;;23.00;1.00;;;;;;2276472;61;1351;-87
2022/08/31 09:01:45;0.00;0.00;0.62;0.00;0.00;0.62;;;;;23.10;1.00;;;;;;2276561;61;1915;-87
2022/08/31 09:04:29;260197.00;0.87;449.49;52150.00;0.17;90.90;;;;;22.70;1.00;;;;;;2276475;61;1072;-86
2022/08/31 09:07:19;55739.00;0.19;97.11;0.00;0.00;0.62;;;;;22.70;1.00;;;;;;2276583;61;1158;-87
2022/08/31 09:09:57;120941.00;0.40;209.71;0.00;0.00;0.62;;;;;23.00;1.00;;;;;;2276555;61;1481;-87
2022/08/31 09:12:37;0.00;0.00;0.62;0.00;0.00;0.62;;;;;22.90;1.00;;;;;;2276531;61;1020;-88
2022/08/31 09:15:27;0.00;0.00;0.62;0.00;0.00;0.62;;;;;22.90;1.00;;;;;;2276541;61;1201;-88
2022/08/31 09:18:05;2804.00;0.01;5.48;0.00;0.00;0.62;;;;;23.10;1.00;;;;;;2276539;61;1037;-87
2022/08/31 09:20:33;367.00;0.00;1.26;0.00;0.00;0.62;;;;;23.10;1.00;;;;;;2276557;61;1556;-87
2022/08/31 09:23:05;0.00;0.00;0.62;0.00;0.00;0.62;;;;;22.90;1.00;;;;;;2276515;61;1909;-87
2022/08/31 09:25:44;145657.00;0.49;252.32;0.00;0.00;0.62;;;;;22.70;1.00;;;;;;2276224;61;1565;-86
2022/08/31 09:28:15;221261.00;0.74;382.51;30029.00;0.10;52.63;;;;;22.90;1.00;;;;;;2276518;61;1297;-87
2022/08/31 09:30:51;0.00;0.00;0.62;0.00;0.00;0.62;;;;;22.90;1.00;;;;;;2276544;61;1059;-87
2022/08/31 09:33:20;0.00;0.00;0.62;0.00;0.00;0.62;;;;;23.30;1.00;;;;;;2276288;61;1821;-86
2022/08/31 09:35:55;0.00;0.00;0.62;0.00;0.00;0.62;;;;;23.70;1.00;;;;;;2276398;61;1176;-86
2022/08/31 09:38:30;67071.00;0.22;116.70;0.00;0.00;0.62;;;;;23.60;1.00;;;;;;2276450;61;1603;-88
2022/08/31 09:40:58;46072.00;0.15;80.39;0.00;0.00;0.62;;;;;23.40;1.00;;;;;;2276436;61;1060;-87
2022/08/31 09:43:33;10306.00;0.03;18.48;0.00;0.00;0.62;;;;;23.90;1.00;;;;;;2276252;61;2001;-88
2022/08/31 09:46:05;0.00;0.00;0.62;0.00;0.00;0.62;;;;;24.20;1.00;;;;;;2276512;61;1090;-89
2022/08/31 09:48:44;54321.00;0.18;94.66;0.00;0.00;0.62;;;;;24.70;1.00;;;;;;2276410;61;1358;-88
2022/08/31 09:51:24;36612.00;0.12;64.03;0.00;0.00;0.62;;;;;24.60;1.00;;;;;;2276492;61;1062;-87
2022/08/31 09:56:53;133672.00;0.45;231.66;0.00;0.00;0.62;;;;;24.10;1.00;;;;;;2292499;41;3647;-87
2022/08/31 09:59:38;0.00;0.00;0.62;0.00;0.00;0.62;;;;;24.30;1.00;;;;;;2276418;61;1315;-88
2022/08/31 10:02:10;0.00;0.00;0.62;0.00;0.00;0.62;;;;;24.40;1.00;;;;;;2276362;61;1918;-86
2022/08/31 10:04:49;12974.00;0.04;23.10;0.00;0.00;0.62;;;;;24.40;1.00;;;;;;2276391;61;1189;-87
2022/08/31 10:07:33;27598.00;0.09;48.43;0.00;0.00;0.62;;;;;24.30;1.00;;;;;;2276367;61;1086;-88
2022/08/31 10:10:07;0.00;0.00;0.62;0.00;0.00;0.62;;;;;24.90;1.00;;;;;;2276406;61;1460;-89
2022/08/31 10:12:45;160592.00;0.54;278.06;61026.00;0.20;106.25;;;;;25.20;1.00;;;;;;2276362;61;1168;-87
2022/08/31 10:15:17;0.00;0.00;0.62;0.00;0.00;0.62;;;;;25.10;1.00;;;;;;2276411;61;1094;-87